createdAt,value
2023-04-12T00:00:48.429Z,100337.06
2023-04-12T00:03:21.042Z,100329.00
2023-04-12T00:05:48.920Z,100329.78
2023-04-12T00:08:16.575Z,100320.44
2023-04-12T00:10:43.204Z,100308.44
2023-04-12T00:13:09.792Z,100315.97
2023-04-12T00:15:36.297Z,100303.44
2023-04-12T00:18:02.834Z,100299.81
2023-04-12T00:20:29.203Z,100290.22
2023-04-12T00:22:57.447Z,100295.66
2023-04-12T00:25:23.978Z,100291.81
2023-04-12T00:27:50.724Z,100279.03
2023-04-12T00:30:17.505Z,100277.88
2023-04-12T00:32:44.028Z,100271.59
2023-04-12T00:35:10.509Z,100261.25
2023-04-12T00:37:38.285Z,100255.56
2023-04-12T00:40:07.193Z,100247.19
2023-04-12T00:42:34.952Z,100237.41
2023-04-12T00:45:01.318Z,100230.91
2023-04-12T00:47:29.673Z,100233.81
2023-04-12T00:49:56.642Z,100218.25
2023-04-12T00:52:23.512Z,100222.59
2023-04-12T00:54:51.772Z,100214.97
2023-04-12T00:57:18.179Z,100208.16
2023-04-12T00:59:44.485Z,100205.72
2023-04-12T01:02:10.941Z,100202.63
2023-04-12T01:04:39.504Z,100198.16
2023-04-12T01:07:32.076Z,100194.56
2023-04-12T01:10:31.310Z,100192.88
2023-04-12T01:13:22.195Z,100182.09
2023-04-12T01:16:01.159Z,100176.69
2023-04-12T01:18:33.301Z,100168.28
2023-04-12T01:21:08.689Z,100170.44
2023-04-12T01:23:52.056Z,100161.56
2023-04-12T01:26:33.363Z,100153.91
2023-04-12T01:29:02.399Z,100149.53
2023-04-12T01:31:31.188Z,100140.91
2023-04-12T01:33:59.926Z,100139.25
2023-04-12T01:36:28.207Z,100139.78
2023-04-12T01:38:54.935Z,100128.94
2023-04-12T01:41:21.340Z,100122.97
2023-04-12T01:43:48.117Z,100124.25
2023-04-12T01:46:22.052Z,100121.84
2023-04-12T01:48:53.517Z,100116.13
2023-04-12T01:51:44.587Z,100099.13
2023-04-12T01:54:19.597Z,100091.00
2023-04-12T01:56:50.167Z,100083.09
2023-04-12T01:59:18.276Z,100076.59
2023-04-12T02:01:47.134Z,100072.03
2023-04-12T02:04:15.978Z,100057.53
2023-04-12T02:06:43.547Z,100059.38
2023-04-12T02:09:10.322Z,100048.03
2023-04-12T02:11:37.808Z,100052.56
2023-04-12T02:14:04.217Z,100037.59
2023-04-12T02:16:32.299Z,100029.13
2023-04-12T02:18:58.870Z,100024.00
2023-04-12T02:21:27.528Z,100013.72
2023-04-12T02:23:53.944Z,100001.81
2023-04-12T02:26:20.866Z,100002.88
2023-04-12T02:28:47.224Z,100006.94
2023-04-12T02:31:15.614Z,100009.88
2023-04-12T02:33:42.552Z,100006.94
2023-04-12T02:36:11.145Z,100000.13
2023-04-12T02:38:37.859Z,99990.88
2023-04-12T02:41:04.321Z,99984.03
2023-04-12T02:43:30.812Z,99978.94
2023-04-12T02:45:57.241Z,99985.16
2023-04-12T02:48:23.669Z,99982.69
2023-04-12T02:50:50.316Z,99981.41
2023-04-12T02:53:17.025Z,99958.66
2023-04-12T02:55:43.454Z,99943.69
2023-04-12T02:58:09.780Z,99933.97
2023-04-12T03:00:36.117Z,99917.97
2023-04-12T03:03:03.676Z,99916.56
2023-04-12T03:05:30.306Z,99912.22
2023-04-12T03:07:56.803Z,99905.75
2023-04-12T03:10:23.323Z,99902.00
2023-04-12T03:12:49.849Z,99899.22
2023-04-12T03:15:17.785Z,99888.41
2023-04-12T03:17:44.827Z,99880.22
2023-04-12T03:20:11.891Z,99880.03
2023-04-12T03:22:38.334Z,99870.53
2023-04-12T03:25:05.446Z,99872.41
2023-04-12T03:27:32.192Z,99855.28
2023-04-12T03:29:58.636Z,99847.16
2023-04-12T03:32:25.619Z,99840.09
2023-04-12T03:34:52.068Z,99836.25
2023-04-12T03:37:19.507Z,99833.06
2023-04-12T03:39:48.017Z,99821.13
2023-04-12T03:42:25.795Z,99825.97
2023-04-12T03:44:58.447Z,99807.31
2023-04-12T03:47:24.992Z,99794.56
2023-04-12T03:50:06.084Z,99792.66
2023-04-12T03:52:36.702Z,99789.94
2023-04-12T03:55:03.556Z,99786.44
2023-04-12T03:57:29.919Z,99787.53
2023-04-12T03:59:56.430Z,99782.59
2023-04-12T04:02:23.138Z,99769.63
2023-04-12T04:04:49.609Z,99753.16
2023-04-12T04:07:16.192Z,99754.00
2023-04-12T04:09:42.639Z,99743.19
2023-04-12T04:12:08.997Z,99732.66
2023-04-12T04:14:36.949Z,99721.78
2023-04-12T04:17:03.461Z,99727.19
2023-04-12T04:19:29.864Z,99720.94
2023-04-12T04:21:57.188Z,99717.66
2023-04-12T04:24:25.069Z,99705.53
2023-04-12T04:26:54.224Z,99695.47
2023-04-12T04:29:20.873Z,99701.44
2023-04-12T04:31:47.519Z,99690.59
2023-04-12T04:34:14.049Z,99691.72
2023-04-12T04:36:42.209Z,99688.44
2023-04-12T04:39:09.802Z,99689.00
2023-04-12T04:41:39.195Z,99674.38
2023-04-12T04:44:09.563Z,99676.50
2023-04-12T04:46:37.813Z,99669.00
2023-04-12T04:49:05.217Z,99678.72
2023-04-12T04:51:31.943Z,99681.41
2023-04-12T04:53:58.673Z,99678.72
2023-04-12T04:56:25.232Z,99673.84
2023-04-12T04:58:51.636Z,99663.03
2023-04-12T05:01:18.034Z,99661.94
2023-04-12T05:03:50.171Z,99664.06
2023-04-12T05:06:17.168Z,99662.19
2023-04-12T05:08:44.856Z,99657.63
2023-04-12T05:11:11.303Z,99660.03
2023-04-12T05:13:37.667Z,99656.78
2023-04-12T05:16:08.174Z,99658.38
2023-04-12T05:18:34.695Z,99653.75
2023-04-12T05:21:05.351Z,99653.81
2023-04-12T05:23:42.971Z,99640.75
2023-04-12T05:26:09.336Z,99633.47
2023-04-12T05:28:36.150Z,99632.66
2023-04-12T05:31:09.521Z,99630.50
2023-04-12T05:33:37.393Z,99628.91
2023-04-12T05:36:04.627Z,99618.09
2023-04-12T05:38:31.302Z,99604.25
2023-04-12T05:40:57.784Z,99604.03
2023-04-12T05:43:24.138Z,99592.94
2023-04-12T05:45:51.440Z,99597.25
2023-04-12T05:48:18.895Z,99580.19
2023-04-12T05:50:52.821Z,99583.97
2023-04-12T05:53:19.269Z,99590.47
2023-04-12T05:55:46.072Z,99591.03
2023-04-12T05:58:12.516Z,99589.69
2023-04-12T06:00:42.273Z,99587.81
2023-04-12T06:03:10.442Z,99584.00
2023-04-12T06:05:37.995Z,99576.41
2023-04-12T06:08:05.442Z,99581.28
2023-04-12T06:10:32.083Z,99566.72
2023-04-12T06:12:58.466Z,99565.06
2023-04-12T06:15:24.810Z,99568.88
2023-04-12T06:17:51.382Z,99573.72
2023-04-12T06:20:17.997Z,99561.50
2023-04-12T06:22:44.453Z,99556.94
2023-04-12T06:25:10.812Z,99557.44
2023-04-12T06:27:37.266Z,99549.63
2023-04-12T06:30:04.245Z,99527.69
2023-04-12T06:32:30.890Z,99534.19
2023-04-12T06:34:57.469Z,99534.47
2023-04-12T06:37:23.975Z,99520.66
2023-04-12T06:39:50.497Z,99526.38
2023-04-12T06:42:17.593Z,99528.81
2023-04-12T06:44:44.112Z,99521.25
2023-04-12T06:47:11.254Z,99512.28
2023-04-12T06:49:39.024Z,99509.31
2023-04-12T06:52:05.468Z,99515.81
2023-04-12T06:54:32.012Z,99503.94
2023-04-12T06:56:58.514Z,99489.34
2023-04-12T06:59:24.899Z,99492.09
2023-04-12T07:01:51.785Z,99470.91
2023-04-12T07:04:18.254Z,99479.88
2023-04-12T07:06:44.731Z,99470.41
2023-04-12T07:09:11.364Z,99474.47
2023-04-12T07:11:37.804Z,99467.72
2023-04-12T07:14:04.312Z,99466.34
2023-04-12T07:16:34.077Z,99461.75
2023-04-12T07:19:00.817Z,99460.97
2023-04-12T07:21:27.644Z,99455.25
2023-04-12T07:23:54.191Z,99447.16
2023-04-12T07:26:21.638Z,99439.88
2023-04-12T07:28:48.111Z,99443.13
2023-04-12T07:31:14.605Z,99438.25
2023-04-12T07:33:42.943Z,99433.09
2023-04-12T07:36:11.132Z,99417.38
2023-04-12T07:38:37.631Z,99422.25
2023-04-12T07:41:04.190Z,99417.41
2023-04-12T07:43:30.600Z,99411.97
2023-04-12T07:45:57.190Z,99398.41
2023-04-12T07:48:23.680Z,99399.50
2023-04-12T07:50:50.601Z,99398.97
2023-04-12T07:53:19.718Z,99397.88
2023-04-12T07:55:47.365Z,99384.06
2023-04-12T07:58:14.155Z,99390.84
2023-04-12T08:00:40.928Z,99394.63
2023-04-12T08:03:07.541Z,99393.53
2023-04-12T08:05:34.631Z,99388.66
2023-04-12T08:08:01.181Z,99388.66
2023-04-12T08:10:27.576Z,99387.00
2023-04-12T08:12:53.968Z,99390.25
2023-04-12T08:15:21.028Z,99388.09
2023-04-12T08:17:48.129Z,99378.09
2023-04-12T08:20:17.905Z,99376.72
2023-04-12T08:22:46.147Z,99370.22
2023-04-12T08:25:12.913Z,99372.91
2023-04-12T08:27:43.207Z,99378.03
2023-04-12T08:30:11.613Z,99386.44
2023-04-12T08:32:38.189Z,99387.25
2023-04-12T08:35:05.629Z,99370.94
2023-04-12T08:37:32.453Z,99361.44
2023-04-12T08:40:00.893Z,99360.88
2023-04-12T08:42:27.600Z,99360.31
2023-04-12T08:44:54.496Z,99360.00
2023-04-12T08:47:21.141Z,99358.09
2023-04-12T08:49:47.615Z,99354.84
2023-04-12T08:52:14.050Z,99360.28
2023-04-12T08:54:40.573Z,99373.00
2023-04-12T08:57:08.838Z,99366.25
2023-04-12T08:59:39.043Z,99364.56
2023-04-12T09:02:05.800Z,99358.06
2023-04-12T09:04:32.421Z,99358.31
2023-04-12T09:06:59.046Z,99350.44
2023-04-12T09:09:47.736Z,99350.44
2023-04-12T09:12:15.714Z,99343.63
2023-04-12T09:14:45.670Z,99340.06
2023-04-12T09:17:23.137Z,99329.47
2023-04-12T09:19:49.824Z,99327.53
2023-04-12T09:22:16.302Z,99332.97
2023-04-12T09:24:50.679Z,99340.31
2023-04-12T09:27:20.870Z,99338.13
2023-04-12T09:29:51.569Z,99334.28
2023-04-12T09:32:27.573Z,99329.38
2023-04-12T09:34:59.048Z,99335.09
2023-04-12T09:37:26.154Z,99334.50
2023-04-12T09:40:06.114Z,99334.56
2023-04-12T09:42:53.323Z,99330.44
2023-04-12T09:45:25.575Z,99331.50
2023-04-12T09:47:53.285Z,99331.19
2023-04-12T09:50:32.798Z,99326.25
2023-04-12T09:53:01.445Z,99324.38
2023-04-12T09:55:29.800Z,99324.28
2023-04-12T09:57:56.482Z,99318.16
2023-04-12T10:00:26.642Z,99327.28
2023-04-12T10:02:55.565Z,99321.13
2023-04-12T10:05:26.699Z,99322.09
2023-04-12T10:07:55.342Z,99317.72
2023-04-12T10:10:23.272Z,99321.56
2023-04-12T10:12:50.605Z,99309.53
2023-04-12T10:15:18.288Z,99302.69
2023-04-12T10:17:51.649Z,99299.63
2023-04-12T10:20:20.028Z,99296.34
2023-04-12T10:22:48.590Z,99292.22
2023-04-12T10:25:18.765Z,99294.94
2023-04-12T10:27:46.612Z,99292.41
2023-04-12T10:30:20.480Z,99290.00
2023-04-12T10:35:14.795Z,99281.75
2023-04-12T10:38:01.504Z,99285.44
2023-04-12T10:40:29.623Z,99270.19
2023-04-12T10:43:22.557Z,99274.47
2023-04-12T10:45:49.885Z,99282.31
2023-04-12T10:48:33.167Z,99279.03
2023-04-12T10:51:26.642Z,99288.06
2023-04-12T10:54:14.447Z,99279.03
2023-04-12T10:56:42.889Z,99289.53
2023-04-12T10:59:10.826Z,99275.66
2023-04-12T11:01:39.168Z,99279.66
2023-04-12T11:04:16.974Z,99280.16
2023-04-12T11:06:53.074Z,99284.44
2023-04-12T11:09:27.598Z,99280.38
2023-04-12T11:12:11.211Z,99286.97
2023-04-12T11:14:51.285Z,99313.91
2023-04-12T11:17:17.921Z,99333.88
2023-04-12T11:19:54.142Z,99327.31
2023-04-12T11:22:23.466Z,99323.06
2023-04-12T11:24:52.349Z,99331.91
2023-04-12T11:27:20.723Z,99323.41
2023-04-12T11:29:56.059Z,99326.91
2023-04-12T11:32:28.414Z,99325.22
2023-04-12T11:34:56.846Z,99320.31
2023-04-12T11:37:24.272Z,99320.72
2023-04-12T11:39:53.264Z,99322.81
2023-04-12T11:42:22.687Z,99321.88
2023-04-12T11:44:56.384Z,99315.50
2023-04-12T11:47:26.705Z,99317.59
2023-04-12T11:50:00.878Z,99323.50
2023-04-12T11:52:32.573Z,99327.44
2023-04-12T11:55:01.424Z,99332.03
2023-04-12T11:57:28.931Z,99332.03
2023-04-12T11:59:57.342Z,99331.16
2023-04-12T12:02:25.158Z,99328.06
2023-04-12T12:04:53.344Z,99327.44
2023-04-12T12:07:21.828Z,99325.72
2023-04-12T12:09:50.088Z,99327.78
2023-04-12T12:12:16.628Z,99328.59
2023-04-12T12:14:45.155Z,99329.41
2023-04-12T12:17:13.504Z,99326.31
2023-04-12T12:19:43.211Z,99328.16
2023-04-12T12:22:20.652Z,99334.13
2023-04-12T12:24:51.284Z,99330.59
2023-04-12T12:27:38.607Z,99337.28
2023-04-12T12:30:07.752Z,99333.22
2023-04-12T12:32:35.762Z,99331.91
2023-04-12T12:35:03.327Z,99336.25
2023-04-12T12:37:30.550Z,99326.16
2023-04-12T12:40:10.443Z,99320.78
2023-04-12T12:42:37.167Z,99320.66
2023-04-12T12:45:04.496Z,99309.81
2023-04-12T12:47:32.418Z,99314.94
2023-04-12T12:49:58.984Z,99317.06
2023-04-12T12:52:25.370Z,99317.19
2023-04-12T12:54:51.821Z,99316.06
2023-04-12T12:57:18.272Z,99313.03
2023-04-12T12:59:44.652Z,99312.91
2023-04-12T13:02:11.233Z,99306.06
2023-04-12T13:04:37.773Z,99317.75
2023-04-12T13:07:04.413Z,99316.50
2023-04-12T13:09:31.649Z,99313.25
2023-04-12T13:11:58.200Z,99313.03
2023-04-12T13:14:24.656Z,99309.63
2023-04-12T13:16:51.271Z,99307.00
2023-04-12T13:19:17.864Z,99309.84
2023-04-12T13:21:44.318Z,99309.47
2023-04-12T13:24:11.253Z,99313.50
2023-04-12T13:26:37.641Z,99314.75
2023-04-12T13:29:03.985Z,99319.56
2023-04-12T13:31:30.544Z,99321.41
2023-04-12T13:33:57.022Z,99321.63
2023-04-12T13:36:23.538Z,99329.63
2023-04-12T13:38:51.370Z,99338.41
2023-04-12T13:41:19.141Z,99340.03
2023-04-12T13:43:45.523Z,99332.63
2023-04-12T13:46:13.292Z,99331.31
2023-04-12T13:48:39.816Z,99326.56
2023-04-12T13:51:06.489Z,99319.00
2023-04-12T13:53:33.001Z,99318.78
2023-04-12T13:55:59.468Z,99307.38
2023-04-12T13:58:25.930Z,99304.22
2023-04-12T14:00:54.285Z,99293.28
2023-04-12T14:03:21.189Z,99295.91
2023-04-12T14:05:47.852Z,99298.16
2023-04-12T14:08:14.215Z,99297.03
2023-04-12T14:10:40.971Z,99302.69
2023-04-12T14:13:07.336Z,99305.44
2023-04-12T14:15:33.729Z,99301.50
2023-04-12T14:18:00.619Z,99306.59
2023-04-12T14:20:27.138Z,99305.47
2023-04-12T14:22:53.516Z,99301.84
2023-04-12T14:25:20.078Z,99305.44
2023-04-12T14:27:46.519Z,99305.59
2023-04-12T14:30:13.102Z,99300.09
2023-04-12T14:32:39.572Z,99312.03
2023-04-12T14:35:06.147Z,99311.00
2023-04-12T14:37:33.150Z,99310.44
2023-04-12T14:39:59.679Z,99310.41
2023-04-12T14:42:26.092Z,99313.13
2023-04-12T14:44:52.464Z,99319.03
2023-04-12T14:47:18.955Z,99318.75
2023-04-12T14:49:45.391Z,99323.31
2023-04-12T14:52:11.877Z,99331.06
2023-04-12T14:54:38.755Z,99331.03
2023-04-12T14:57:05.119Z,99332.81
2023-04-12T14:59:32.135Z,99318.28
2023-04-12T15:01:59.555Z,99328.06
2023-04-12T15:04:26.269Z,99326.03
2023-04-12T15:06:52.777Z,99327.63
2023-04-12T15:09:19.168Z,99322.47
2023-04-12T15:11:50.460Z,99325.22
2023-04-12T15:14:20.487Z,99335.72
2023-04-12T15:16:49.055Z,99345.72
2023-04-12T15:19:21.116Z,99333.31
2023-04-12T15:21:51.142Z,99341.75
2023-04-12T15:24:18.723Z,99338.97
2023-04-12T15:26:48.062Z,99351.31
2023-04-12T15:29:16.517Z,99369.53
2023-04-12T15:31:43.531Z,99403.63
2023-04-12T15:34:10.661Z,99399.13
2023-04-12T15:36:37.349Z,99410.88
2023-04-12T15:39:07.328Z,99416.47
2023-04-12T15:41:38.057Z,99399.19
2023-04-12T15:44:05.234Z,99392.84
2023-04-12T15:46:31.610Z,99394.81
2023-04-12T15:48:58.833Z,99395.66
2023-04-12T15:51:26.710Z,99401.63
2023-04-12T15:53:53.751Z,99402.19
2023-04-12T15:56:24.258Z,99405.28
2023-04-12T15:58:56.803Z,99410.72
2023-04-12T16:01:24.535Z,99422.22
2023-04-12T16:03:51.800Z,99425.91
2023-04-12T16:06:19.781Z,99430.06
2023-04-12T16:08:51.401Z,99444.97
2023-04-12T16:11:21.262Z,99445.09
2023-04-12T16:13:48.988Z,99448.00
2023-04-12T16:16:17.774Z,99463.28
2023-04-12T16:18:45.549Z,99463.88
2023-04-12T16:21:16.244Z,99461.75
2023-04-12T16:23:44.425Z,99467.19
2023-04-12T16:26:12.103Z,99475.63
2023-04-12T16:28:39.366Z,99468.94
2023-04-12T16:31:06.502Z,99472.22
2023-04-12T16:33:32.945Z,99459.78
2023-04-12T16:36:00.680Z,99460.16
2023-04-12T16:38:27.333Z,99473.97
2023-04-12T16:40:53.784Z,99476.63
2023-04-12T16:43:20.195Z,99481.56
2023-04-12T16:45:48.528Z,99484.97
2023-04-12T16:48:15.563Z,99486.06
2023-04-12T16:50:47.157Z,99499.66
2023-04-12T16:53:15.032Z,99500.78
2023-04-12T16:55:47.118Z,99479.09
2023-04-12T16:58:14.358Z,99466.03
2023-04-12T17:00:43.157Z,99464.03
2023-04-12T17:03:11.433Z,99470.50
2023-04-12T17:05:38.850Z,99469.63
2023-04-12T17:08:05.906Z,99475.69
2023-04-12T17:10:33.260Z,99476.25
2023-04-12T17:12:59.783Z,99471.91
2023-04-12T17:15:27.042Z,99469.19
2023-04-12T17:18:01.137Z,99475.94
2023-04-12T17:20:28.428Z,99476.97
2023-04-12T17:22:55.415Z,99478.06
2023-04-12T17:28:08.808Z,99474.25
2023-04-12T17:30:35.209Z,99479.44
2023-04-12T17:33:01.819Z,99480.25
2023-04-12T17:35:28.789Z,99481.38
2023-04-12T17:37:55.395Z,99476.22
2023-04-12T17:40:21.948Z,99470.78
2023-04-12T17:42:48.512Z,99453.06
2023-04-12T17:45:15.976Z,99461.56
2023-04-12T17:47:42.849Z,99467.53
2023-04-12T17:50:11.084Z,99478.97
2023-04-12T17:52:37.930Z,99485.31
2023-04-12T17:55:05.806Z,99490.91
2023-04-12T17:57:32.581Z,99490.97
2023-04-12T17:59:58.936Z,99497.25
2023-04-12T18:02:26.141Z,99491.63
2023-04-12T18:04:52.600Z,99488.94
2023-04-12T18:07:19.217Z,99489.72
2023-04-12T18:09:45.903Z,99495.50
2023-04-12T18:12:13.038Z,99500.94
2023-04-12T18:14:40.897Z,99486.63
2023-04-12T18:17:08.180Z,99493.53
2023-04-12T18:19:34.732Z,99501.41
2023-04-12T18:22:01.136Z,99503.00
2023-04-12T18:24:27.777Z,99503.84
2023-04-12T18:26:54.241Z,99510.19
2023-04-12T18:29:20.946Z,99511.56
2023-04-12T18:31:47.566Z,99509.66
2023-04-12T18:34:14.096Z,99521.63
2023-04-12T18:36:42.275Z,99525.19
2023-04-12T18:39:08.906Z,99525.19
2023-04-12T18:41:35.798Z,99519.75
2023-04-12T18:44:02.731Z,99526.56
2023-04-12T18:46:29.658Z,99527.91
2023-04-12T18:48:56.866Z,99530.34
2023-04-12T18:51:23.306Z,99535.22
2023-04-12T18:53:51.233Z,99535.53
2023-04-12T18:56:23.040Z,99521.41
2023-04-12T18:58:55.724Z,99525.75
2023-04-12T19:01:24.758Z,99527.09
2023-04-12T19:03:52.177Z,99523.03
2023-04-12T19:06:19.152Z,99513.25
2023-04-12T19:08:45.596Z,99514.34
2023-04-12T19:11:12.290Z,99523.03
2023-04-12T19:13:38.748Z,99536.59
2023-04-12T19:16:08.591Z,99531.16
2023-04-12T19:18:35.353Z,99529.00
2023-04-12T19:21:02.622Z,99527.41
2023-04-12T19:23:29.660Z,99531.72
2023-04-12T19:25:58.740Z,99534.97
2023-04-12T19:28:26.326Z,99540.41
2023-04-12T19:30:53.339Z,99536.09
2023-04-12T19:33:20.541Z,99548.56
2023-04-12T19:35:47.428Z,99543.66
2023-04-12T19:38:15.372Z,99543.13
2023-04-12T19:40:42.053Z,99542.56
2023-04-12T19:43:08.818Z,99542.59
2023-04-12T19:45:35.573Z,99534.44
2023-04-12T19:48:02.260Z,99548.00
2023-04-12T19:50:30.844Z,99540.41
2023-04-12T19:52:57.307Z,99535.22
2023-04-12T19:55:23.842Z,99542.81
2023-04-12T19:57:51.165Z,99539.00
2023-04-12T20:00:20.938Z,99538.19
2023-04-12T20:02:52.058Z,99535.47
2023-04-12T20:05:20.634Z,99540.34
2023-04-12T20:07:47.162Z,99524.88
2023-04-12T20:10:15.239Z,99528.41
2023-04-12T20:12:41.881Z,99527.31
2023-04-12T20:15:09.110Z,99535.97
2023-04-12T20:17:36.082Z,99541.66
2023-04-12T20:20:04.586Z,99537.06
2023-04-12T20:22:31.028Z,99537.84
2023-04-12T20:24:58.358Z,99534.88
2023-04-12T20:27:24.922Z,99529.69
2023-04-12T20:29:51.794Z,99530.25
2023-04-12T20:32:18.281Z,99523.72
2023-04-12T20:34:48.987Z,99521.31
2023-04-12T20:37:16.812Z,99504.25
2023-04-12T20:39:44.032Z,99519.09
2023-04-12T20:42:10.716Z,99519.09
2023-04-12T20:44:37.504Z,99515.03
2023-04-12T20:47:04.032Z,99527.44
2023-04-12T20:49:31.244Z,99530.88
2023-04-12T20:51:58.982Z,99529.19
2023-04-12T20:54:26.505Z,99537.19
2023-04-12T20:56:54.151Z,99536.88
2023-04-12T20:59:23.920Z,99539.34
2023-04-12T21:01:51.130Z,99529.38
2023-04-12T21:04:17.611Z,99524.72
2023-04-12T21:06:45.004Z,99522.88
2023-04-12T21:09:11.410Z,99513.97
2023-04-12T21:11:37.985Z,99521.53
2023-04-12T21:14:04.986Z,99515.13
2023-04-12T21:16:31.488Z,99514.06
2023-04-12T21:18:59.275Z,99533.56
2023-04-12T21:21:27.332Z,99558.47
2023-04-12T21:23:53.743Z,99566.03
2023-04-12T21:26:21.457Z,99599.84
2023-04-12T21:28:48.641Z,99602.84
2023-04-12T21:31:15.356Z,99599.59
2023-04-12T21:33:41.854Z,99592.88
2023-04-12T21:36:08.308Z,99598.03
2023-04-12T21:38:34.652Z,99595.63
2023-04-12T21:41:09.781Z,99601.25
2023-04-12T21:43:36.087Z,99575.84
2023-04-12T21:46:02.576Z,99576.66
2023-04-12T21:48:29.376Z,99568.28
2023-04-12T21:50:55.783Z,99575.34
2023-04-12T21:53:22.143Z,99574.03
2023-04-12T21:55:50.808Z,99561.84
2023-04-12T21:58:17.299Z,99575.38
2023-04-12T22:00:43.952Z,99561.28
2023-04-12T22:03:11.868Z,99541.50
2023-04-12T22:05:41.189Z,99530.41
2023-04-12T22:08:08.443Z,99539.88
2023-04-12T22:10:35.014Z,99549.34
2023-04-12T22:13:02.640Z,99540.16
2023-04-12T22:15:29.851Z,99536.91
2023-04-12T22:17:56.895Z,99535.00
2023-04-12T22:20:23.350Z,99532.03
2023-04-12T22:22:49.751Z,99522.25
2023-04-12T22:25:18.270Z,99523.00
2023-04-12T22:27:47.740Z,99519.50
2023-04-12T22:30:14.728Z,99515.38
2023-04-12T22:32:41.358Z,99516.41
2023-04-12T22:35:09.299Z,99522.91
2023-04-12T22:37:38.781Z,99524.59
2023-04-12T22:40:06.381Z,99520.97
2023-04-12T22:42:32.677Z,99523.06
2023-04-12T22:44:59.079Z,99512.78
2023-04-12T22:47:26.540Z,99514.94
2023-04-12T22:50:01.294Z,99514.91
2023-04-12T22:52:30.563Z,99510.59
2023-04-12T22:54:56.989Z,99494.31
2023-04-12T22:57:23.675Z,99490.53
2023-04-12T22:59:51.746Z,99492.09
2023-04-12T23:02:18.227Z,99480.13
2023-04-12T23:04:48.786Z,99474.97
2023-04-12T23:07:15.417Z,99475.78
2023-04-12T23:09:42.464Z,99468.47
2023-04-12T23:12:08.902Z,99468.09
2023-04-12T23:14:37.750Z,99468.63
2023-04-12T23:17:04.206Z,99463.66
2023-04-12T23:19:30.555Z,99471.50
2023-04-12T23:21:57.236Z,99463.06
2023-04-12T23:24:24.951Z,99459.88
2023-04-12T23:26:51.329Z,99459.69
2023-04-12T23:29:17.779Z,99451.00
2023-04-12T23:31:45.324Z,99441.56
2023-04-12T23:34:11.850Z,99447.28
2023-04-12T23:36:38.263Z,99439.69
2023-04-12T23:39:08.529Z,99445.69
2023-04-12T23:41:34.874Z,99446.25
2023-04-12T23:44:02.128Z,99441.13
2023-04-12T23:46:28.671Z,99446.78
2023-04-12T23:48:55.173Z,99443.84
2023-04-12T23:51:22.581Z,99448.69
2023-04-12T23:53:48.964Z,99433.78
2023-04-12T23:56:15.697Z,99423.84
2023-04-12T23:58:42.679Z,99434.09
